Terminal Aerodrome Forecast
Issued by NWS

Home | Current Version | Previous Version | Text Only | Print | Product List | Glossary On
Versions: 1 2 3 4 5 6 7 8 9 10 11 12 13 14 15
000
FTUS42 KMLB 161737
TAFFPR
TAF
KFPR 161737Z 1618/1718 04010KT P6SM FEW040
     FM170000 VRB05KT P6SM SCT250
     FM171600 31008KT P6SM FEW040 SCT250=

USA.gov is the U.S. government's official web portal to all federal, state and local government web resources and services.